Euro Snow — VQGH9 — position and weather

sailwx.info

Track history (hours):
 
Tides and Currents Weather Stations Pressure Air Temp Water Temp Dewpoint Dewpoint Depression Visibility Wind Speed Wind Dir Waves Ship Positions

Euro Snow

Last reported at 2014-Nov-19 23:33 UTC. Time now 2014-Nov-20 20:35 UTC.
Position N 54°58' W 000°04'.

Length 133 m; draft 7.1 m.

Type: Cargo ship. MMSI: 235613000.

Date/timePositionNaut miles runAvg speedWind from/ knotsBaromVisibWave heightAir tempDewpointWater temp
2014-Nov-19 23:33N 54°58' W 000°04'1515.5
2014-Nov-19 22:33N 54°51' W 000°28'1615.4
2014-Nov-19 21:32N 54°44' W 000°53'12 1.7
2014-Nov-19 14:20N 54°36' W 001°09'0 0.0
2014-Nov-19 13:23N 54°36' W 001°09'0 0.0
2014-Nov-19 12:19N 54°36' W 001°09'0 0.0
2014-Nov-19 11:25N 54°36' W 001°09'0 0.0
2014-Nov-19 09:28N 54°36' W 001°09'0 0.0
2014-Nov-19 08:31N 54°36' W 001°09'0 0.0
2014-Nov-19 07:31N 54°36' W 001°09'0 0.0
2014-Nov-19 06:33N 54°36' W 001°09'4 4.4
2014-Nov-19 05:33N 54°41' W 001°07'2015.7
2014-Nov-19 04:18N 54°33' W 000°35'1216.2
2014-Nov-19 03:33N 54°25' W 000°20'1616.0
2014-Nov-19 02:33N 54°13' W 000°01'1515.5
2014-Nov-19 01:33N 54°02' E 000°16'1615.5
2014-Nov-19 00:33N 53°50' E 000°34'3716.2
2014-Nov-18 22:18N 53°21' E 001°10'1317.0
2014-Nov-18 21:33N 53°10' E 001°21'1716.7
2014-Nov-18 20:34N 52°56' E 001°35'1615.7
2014-Nov-18 19:33N 52°45' E 001°54'1413.7
2014-Nov-18 18:33N 52°31' E 001°53'1413.8
2014-Nov-18 17:33N 52°18' E 001°46'1413.7
2014-Nov-18 16:33N 52°05' E 001°39'1313.0
2014-Nov-18 15:33N 51°56' E 001°24'4 4.2
2014-Nov-18 14:33N 51°58' E 001°18'0 0.0
2014-Nov-18 13:31N 51°58' E 001°18'0 0.0
2014-Nov-18 12:32N 51°58' E 001°18'0 0.0
2014-Nov-18 11:32N 51°58' E 001°18'0 0.0
2014-Nov-18 10:31N 51°58' E 001°18'0 0.0
2014-Nov-18 09:32N 51°58' E 001°18'0 0.0
2014-Nov-18 08:32N 51°58' E 001°18'0 0.0
2014-Nov-18 07:32N 51°58' E 001°18'0 0.1
2014-Nov-18 06:33N 51°57' E 001°18'9 8.7
2014-Nov-18 05:33N 51°57' E 001°32'1 0.8
2014-Nov-18 04:33N 51°58' E 001°33'0 0.0
2014-Nov-18 03:33N 51°58' E 001°33'0 0.0
2014-Nov-18 02:33N 51°58' E 001°33'0 0.0
2014-Nov-18 01:33N 51°58' E 001°33'0 0.1
2014-Nov-18 00:33N 51°58' E 001°33'0 0.0
2014-Nov-17 23:33N 51°58' E 001°33'0 0.1
2014-Nov-17 22:34N 51°58' E 001°33'1111.3
2014-Nov-17 21:34N 51°51' E 001°46'1515.3
2014-Nov-17 20:33N 51°35' E 001°48'1615.9
2014-Nov-17 19:33N 51°20' E 001°42'1414.4
2014-Nov-17 18:33N 51°06' E 001°39'3515.4
2014-Nov-17 16:16N 50°36' E 001°08'1115.4
2014-Nov-17 15:33N 50°31' E 000°53'1615.7
2014-Nov-17 14:33N 50°26' E 000°30'  
2014-Nov-15 00:24N 38°38' W 009°27'1213.5
2014-Nov-14 23:33N 38°41' W 009°13'6 5.3
2014-Nov-14 22:31N 38°43' W 009°07'0 0.0
2014-Nov-14 21:31N 38°43' W 009°07'0 0.0
2014-Nov-14 20:31N 38°43' W 009°07'0 0.0
2014-Nov-14 19:31N 38°43' W 009°07'0 0.0
2014-Nov-14 18:33N 38°43' W 009°07'0 0.0
2014-Nov-14 17:33N 38°43' W 009°07'0 0.0
2014-Nov-14 16:33N 38°43' W 009°07'0 0.0
2014-Nov-14 15:33N 38°43' W 009°07'0 0.0
2014-Nov-14 14:33N 38°43' W 009°07'0 0.0
2014-Nov-14 12:33N 38°43' W 009°07'0 0.0
2014-Nov-14 11:33N 38°43' W 009°07'0 0.0
2014-Nov-14 10:33N 38°43' W 009°07'0 0.0
2014-Nov-14 09:33N 38°43' W 009°07'1 0.5
2014-Nov-14 08:34N 38°43' W 009°07'1212.2
2014-Nov-14 07:33N 38°38' W 009°21'  
2014-Nov-11 15:28N 43°43' W 006°09'1314.2
2014-Nov-11 14:32N 43°41' W 005°51'10 9.9
2014-Nov-11 13:32N 43°33' W 005°41'0 0.0
2014-Nov-11 12:30N 43°33' W 005°41'1 0.1
2014-Nov-11 07:33N 43°34' W 005°41'1614.1
2014-Nov-11 06:26N 43°50' W 005°41'  
Track history (hours):
 
Tides and Currents Weather Stations Pressure Air Temp Water Temp Dewpoint Dewpoint Depression Visibility Wind Speed Wind Dir Waves Ship Positions

Euro Snow

Last reported at 2014-Nov-19 23:33 UTC. Time now 2014-Nov-20 20:35 UTC.
Position N 54°58' W 000°04'.

Length 133 m; draft 7.1 m.

Type: Cargo ship. MMSI: 235613000.

Date/timePositionNaut miles runAvg speedWind from/ knotsBaromVisibWave heightAir tempDewpointWater temp
2014-Nov-19 23:33N 54°58' W 000°04'1515.5
2014-Nov-19 22:33N 54°51' W 000°28'1615.4
2014-Nov-19 21:32N 54°44' W 000°53'12 1.7
2014-Nov-19 14:20N 54°36' W 001°09'0 0.0
2014-Nov-19 13:23N 54°36' W 001°09'0 0.0
2014-Nov-19 12:19N 54°36' W 001°09'0 0.0
2014-Nov-19 11:25N 54°36' W 001°09'0 0.0
2014-Nov-19 09:28N 54°36' W 001°09'0 0.0
2014-Nov-19 08:31N 54°36' W 001°09'0 0.0
2014-Nov-19 07:31N 54°36' W 001°09'0 0.0
2014-Nov-19 06:33N 54°36' W 001°09'4 4.4
2014-Nov-19 05:33N 54°41' W 001°07'2015.7
2014-Nov-19 04:18N 54°33' W 000°35'1216.2
2014-Nov-19 03:33N 54°25' W 000°20'1616.0
2014-Nov-19 02:33N 54°13' W 000°01'1515.5
2014-Nov-19 01:33N 54°02' E 000°16'1615.5
2014-Nov-19 00:33N 53°50' E 000°34'3716.2
2014-Nov-18 22:18N 53°21' E 001°10'1317.0
2014-Nov-18 21:33N 53°10' E 001°21'1716.7
2014-Nov-18 20:34N 52°56' E 001°35'1615.7
2014-Nov-18 19:33N 52°45' E 001°54'1413.7
2014-Nov-18 18:33N 52°31' E 001°53'1413.8
2014-Nov-18 17:33N 52°18' E 001°46'1413.7
2014-Nov-18 16:33N 52°05' E 001°39'1313.0
2014-Nov-18 15:33N 51°56' E 001°24'4 4.2
2014-Nov-18 14:33N 51°58' E 001°18'0 0.0
2014-Nov-18 13:31N 51°58' E 001°18'0 0.0
2014-Nov-18 12:32N 51°58' E 001°18'0 0.0
2014-Nov-18 11:32N 51°58' E 001°18'0 0.0
2014-Nov-18 10:31N 51°58' E 001°18'0 0.0
2014-Nov-18 09:32N 51°58' E 001°18'0 0.0
2014-Nov-18 08:32N 51°58' E 001°18'0 0.0
2014-Nov-18 07:32N 51°58' E 001°18'0 0.1
2014-Nov-18 06:33N 51°57' E 001°18'9 8.7
2014-Nov-18 05:33N 51°57' E 001°32'1 0.8
2014-Nov-18 04:33N 51°58' E 001°33'0 0.0
2014-Nov-18 03:33N 51°58' E 001°33'0 0.0
2014-Nov-18 02:33N 51°58' E 001°33'0 0.0
2014-Nov-18 01:33N 51°58' E 001°33'0 0.1
2014-Nov-18 00:33N 51°58' E 001°33'0 0.0
2014-Nov-17 23:33N 51°58' E 001°33'0 0.1
2014-Nov-17 22:34N 51°58' E 001°33'1111.3
2014-Nov-17 21:34N 51°51' E 001°46'1515.3
2014-Nov-17 20:33N 51°35' E 001°48'1615.9
2014-Nov-17 19:33N 51°20' E 001°42'1414.4
2014-Nov-17 18:33N 51°06' E 001°39'3515.4
2014-Nov-17 16:16N 50°36' E 001°08'1115.4
2014-Nov-17 15:33N 50°31' E 000°53'1615.7
2014-Nov-17 14:33N 50°26' E 000°30'  
2014-Nov-15 00:24N 38°38' W 009°27'1213.5
2014-Nov-14 23:33N 38°41' W 009°13'6 5.3
2014-Nov-14 22:31N 38°43' W 009°07'0 0.0
2014-Nov-14 21:31N 38°43' W 009°07'0 0.0
2014-Nov-14 20:31N 38°43' W 009°07'0 0.0
2014-Nov-14 19:31N 38°43' W 009°07'0 0.0
2014-Nov-14 18:33N 38°43' W 009°07'0 0.0
2014-Nov-14 17:33N 38°43' W 009°07'0 0.0
2014-Nov-14 16:33N 38°43' W 009°07'0 0.0
2014-Nov-14 15:33N 38°43' W 009°07'0 0.0
2014-Nov-14 14:33N 38°43' W 009°07'0 0.0
2014-Nov-14 12:33N 38°43' W 009°07'0 0.0
2014-Nov-14 11:33N 38°43' W 009°07'0 0.0
2014-Nov-14 10:33N 38°43' W 009°07'0 0.0
2014-Nov-14 09:33N 38°43' W 009°07'1 0.5
2014-Nov-14 08:34N 38°43' W 009°07'1212.2
2014-Nov-14 07:33N 38°38' W 009°21'  
2014-Nov-11 15:28N 43°43' W 006°09'1314.2
2014-Nov-11 14:32N 43°41' W 005°51'10 9.9
2014-Nov-11 13:32N 43°33' W 005°41'0 0.0
2014-Nov-11 12:30N 43°33' W 005°41'1 0.1
2014-Nov-11 07:33N 43°34' W 005°41'1614.1
2014-Nov-11 06:26N 43°50' W 005°41'  

Dump ship's entire track history